createdAt,value
2018-09-21T00:01:17.578Z,11.37
2018-09-21T00:03:52.036Z,11.37
2018-09-21T00:06:21.660Z,10.98
2018-09-21T00:08:51.134Z,9.83
2018-09-21T00:11:20.647Z,10.70
2018-09-21T00:13:50.458Z,11.63
2018-09-21T00:16:20.782Z,10.67
2018-09-21T00:18:50.230Z,12.70
2018-09-21T00:21:19.438Z,10.97
2018-09-21T00:23:49.322Z,10.55
2018-09-21T00:26:19.463Z,11.93
2018-09-21T00:28:49.298Z,10.53
2018-09-21T00:31:19.410Z,9.73
2018-09-21T00:33:49.534Z,10.72
2018-09-21T00:36:19.467Z,10.05
2018-09-21T00:38:49.502Z,11.40
2018-09-21T00:41:19.634Z,11.20
2018-09-21T00:43:49.782Z,10.75
2018-09-21T00:46:19.599Z,10.43
2018-09-21T00:48:49.639Z,10.20
2018-09-21T00:51:19.681Z,9.85
2018-09-21T00:53:49.742Z,11.38
2018-09-21T00:56:19.769Z,11.22
2018-09-21T00:58:49.851Z,10.48
2018-09-21T01:01:19.727Z,11.63
2018-09-21T01:03:49.862Z,10.75
2018-09-21T01:06:19.851Z,11.53
2018-09-21T01:08:49.915Z,10.00
2018-09-21T01:11:19.935Z,10.40
2018-09-21T01:13:49.954Z,9.73
2018-09-21T01:16:20.050Z,11.45
2018-09-21T01:18:50.079Z,9.38
2018-09-21T01:21:19.919Z,9.70
2018-09-21T01:23:50.103Z,9.68
2018-09-21T01:26:20.165Z,10.30
2018-09-21T01:28:50.116Z,9.60
2018-09-21T01:31:20.175Z,10.85
2018-09-21T01:33:50.224Z,10.33
2018-09-21T01:36:20.196Z,10.53
2018-09-21T01:38:50.307Z,11.07
2018-09-21T01:41:20.215Z,12.13
2018-09-21T01:43:50.247Z,10.98
2018-09-21T01:46:20.326Z,10.23
2018-09-21T01:48:50.337Z,9.67
2018-09-21T01:51:20.486Z,10.50
2018-09-21T01:53:50.426Z,9.63
2018-09-21T01:56:20.386Z,8.63
2018-09-21T01:58:50.347Z,10.00
2018-09-21T02:01:20.455Z,9.28
2018-09-21T02:03:50.558Z,9.03
2018-09-21T02:06:20.584Z,10.00
2018-09-21T02:08:50.588Z,9.73
2018-09-21T02:11:20.614Z,10.45
2018-09-21T02:13:50.602Z,10.05
2018-09-21T02:16:20.647Z,10.77
2018-09-21T02:18:50.499Z,10.08
2018-09-21T02:21:20.574Z,10.50
2018-09-21T02:23:50.746Z,10.72
2018-09-21T02:26:20.774Z,11.28
2018-09-21T02:28:50.742Z,10.08
2018-09-21T02:31:20.728Z,10.03
2018-09-21T02:33:50.683Z,9.78
2018-09-21T02:36:20.794Z,9.95
2018-09-21T02:38:50.867Z,9.70
2018-09-21T02:41:20.920Z,10.58
2018-09-21T02:43:50.899Z,9.78
2018-09-21T02:46:20.867Z,9.15
2018-09-21T02:48:50.996Z,9.05
2018-09-21T02:51:20.991Z,8.60
2018-09-21T02:53:50.950Z,9.75
2018-09-21T02:56:21.496Z,9.30
2018-09-21T02:58:51.319Z,8.37
2018-09-21T03:01:21.145Z,8.33
2018-09-21T03:03:51.382Z,9.13
2018-09-21T03:06:21.192Z,8.48
2018-09-21T03:08:51.071Z,9.03
2018-09-21T03:11:21.045Z,8.55
2018-09-21T03:13:51.223Z,8.50
2018-09-21T03:16:21.139Z,7.97
2018-09-21T03:18:51.170Z,8.73
2018-09-21T03:21:21.196Z,8.83
2018-09-21T03:23:51.229Z,8.90
2018-09-21T03:26:21.190Z,9.03
2018-09-21T03:28:51.246Z,9.20
2018-09-21T03:31:21.301Z,9.13
2018-09-21T03:33:51.358Z,10.00
2018-09-21T03:36:21.506Z,10.00
2018-09-21T03:38:51.434Z,9.17
2018-09-21T03:41:21.464Z,9.18
2018-09-21T03:43:51.398Z,9.10
2018-09-21T03:46:21.587Z,9.45
2018-09-21T03:48:51.703Z,8.80
2018-09-21T03:51:21.703Z,8.80
2018-09-21T03:53:51.720Z,8.55
2018-09-21T03:56:21.676Z,8.90
2018-09-21T03:58:51.578Z,9.35
2018-09-21T04:01:21.534Z,8.83
2018-09-21T04:03:51.675Z,9.33
2018-09-21T04:06:21.748Z,9.55
2018-09-21T04:08:51.835Z,8.55
2018-09-21T04:11:21.811Z,9.20
2018-09-21T04:13:51.898Z,9.20
2018-09-21T04:16:21.955Z,9.05
2018-09-21T04:18:51.871Z,9.50
2018-09-21T04:21:21.822Z,8.80
2018-09-21T04:23:52.118Z,8.48
2018-09-21T04:26:21.932Z,8.37
2018-09-21T04:28:52.153Z,8.75
2018-09-21T04:31:22.088Z,9.30
2018-09-21T04:33:52.072Z,9.98
2018-09-21T04:36:22.097Z,9.35
2018-09-21T04:38:52.169Z,10.20
2018-09-21T04:41:22.170Z,8.70
2018-09-21T04:43:52.270Z,8.68
2018-09-21T04:46:22.349Z,9.05
2018-09-21T04:48:52.207Z,8.33
2018-09-21T04:51:22.295Z,8.40
2018-09-21T04:53:52.328Z,7.93
2018-09-21T04:56:22.354Z,8.33
2018-09-21T04:58:52.438Z,9.07
2018-09-21T05:01:22.347Z,7.53
2018-09-21T05:03:52.538Z,8.40
2018-09-21T05:06:22.600Z,8.08
2018-09-21T05:08:52.466Z,8.68
2018-09-21T05:11:22.538Z,7.85
2018-09-21T05:13:52.611Z,7.97
2018-09-21T05:16:22.595Z,7.80
2018-09-21T05:18:52.494Z,7.45
2018-09-21T05:21:22.616Z,8.50
2018-09-21T05:23:52.554Z,8.23
2018-09-21T05:26:22.627Z,8.53
2018-09-21T05:28:52.665Z,7.22
2018-09-21T05:31:22.596Z,7.60
2018-09-21T05:33:52.726Z,7.78
2018-09-21T05:36:22.625Z,8.03
2018-09-21T05:38:52.786Z,7.60
2018-09-21T05:41:22.766Z,7.85
2018-09-21T05:43:52.650Z,7.03
2018-09-21T05:46:22.784Z,7.53
2018-09-21T05:48:52.772Z,8.20
2018-09-21T05:51:23.185Z,7.97
2018-09-21T05:53:53.322Z,6.90
2018-09-21T05:56:23.425Z,8.45
2018-09-21T05:58:53.201Z,7.60
2018-09-21T06:01:23.344Z,8.25
2018-09-21T06:03:53.400Z,7.97
2018-09-21T06:06:23.586Z,7.15
2018-09-21T06:08:53.390Z,6.70
2018-09-21T06:11:23.511Z,7.70
2018-09-21T06:13:55.088Z,8.20
2018-09-21T06:16:24.249Z,7.40
2018-09-21T06:18:53.455Z,7.60
2018-09-21T06:21:23.451Z,7.05
2018-09-21T06:23:53.523Z,7.33
2018-09-21T06:26:23.521Z,7.12
2018-09-21T06:28:53.679Z,6.97
2018-09-21T06:31:23.592Z,7.12
2018-09-21T06:33:53.634Z,6.85
2018-09-21T06:36:23.773Z,7.65
2018-09-21T06:38:53.633Z,7.72
2018-09-21T06:41:23.478Z,7.45
2018-09-21T06:43:53.638Z,7.28
2018-09-21T06:46:23.694Z,6.58
2018-09-21T06:48:53.641Z,7.30
2018-09-21T06:51:23.683Z,6.70
2018-09-21T06:53:53.792Z,6.95
2018-09-21T06:56:23.827Z,7.15
2018-09-21T06:58:53.784Z,6.20
2018-09-21T07:01:23.834Z,7.10
2018-09-21T07:03:53.899Z,6.15
2018-09-21T07:06:23.929Z,5.60
2018-09-21T07:08:53.891Z,5.90
2018-09-21T07:11:23.938Z,5.47
2018-09-21T07:13:54.253Z,5.45
2018-09-21T07:16:24.087Z,5.53
2018-09-21T07:18:54.033Z,6.85
2018-09-21T07:21:24.050Z,5.53
2018-09-21T07:23:54.130Z,6.30
2018-09-21T07:26:24.158Z,5.70
2018-09-21T07:28:54.057Z,5.67
2018-09-21T07:31:24.049Z,5.95
2018-09-21T07:33:54.263Z,6.10
2018-09-21T07:36:24.355Z,5.28
2018-09-21T07:38:54.217Z,5.50
2018-09-21T07:41:24.175Z,6.05
2018-09-21T07:43:54.412Z,6.23
2018-09-21T07:46:24.255Z,5.42
2018-09-21T07:48:54.333Z,5.40
2018-09-21T07:51:24.230Z,6.47
2018-09-21T07:53:54.283Z,5.58
2018-09-21T07:56:24.429Z,5.80
2018-09-21T07:58:54.487Z,5.67
2018-09-21T08:01:24.503Z,4.90
2018-09-21T08:03:54.495Z,4.80
2018-09-21T08:06:24.331Z,4.50
2018-09-21T08:08:54.450Z,6.00
2018-09-21T08:11:24.480Z,5.10
2018-09-21T08:13:55.243Z,4.97
2018-09-21T08:16:24.582Z,5.10
2018-09-21T08:18:54.570Z,4.45
2018-09-21T08:21:24.618Z,5.00
2018-09-21T08:23:54.627Z,4.97
2018-09-21T08:26:24.616Z,5.00
2018-09-21T08:28:54.652Z,4.95
2018-09-21T08:31:24.712Z,5.00
2018-09-21T08:33:54.726Z,5.67
2018-09-21T08:36:24.868Z,5.47
2018-09-21T08:38:54.933Z,5.83
2018-09-21T08:41:24.790Z,6.72
2018-09-21T08:43:55.216Z,5.33
2018-09-21T08:46:24.855Z,5.22
2018-09-21T08:48:54.745Z,5.00
2018-09-21T08:51:24.674Z,5.00
2018-09-21T08:53:54.901Z,6.00
2018-09-21T08:56:24.962Z,5.08
2018-09-21T08:58:54.982Z,5.65
2018-09-21T09:01:24.927Z,5.30
2018-09-21T09:03:54.930Z,4.60
2018-09-21T09:06:25.110Z,5.50
2018-09-21T09:08:55.145Z,5.40
2018-09-21T09:11:24.967Z,6.05
2018-09-21T09:13:55.180Z,4.97
2018-09-21T09:16:24.955Z,6.40
2018-09-21T09:18:55.076Z,6.00
2018-09-21T09:21:25.155Z,5.40
2018-09-21T09:23:55.223Z,6.17
2018-09-21T09:26:25.249Z,6.20
2018-09-21T09:28:55.268Z,6.20
2018-09-21T09:31:25.389Z,5.75
2018-09-21T09:33:55.296Z,6.00
2018-09-21T09:36:25.271Z,5.50
2018-09-21T09:38:55.296Z,5.33
2018-09-21T09:41:25.421Z,6.25
2018-09-21T09:43:55.615Z,5.10
2018-09-21T09:46:25.275Z,6.07
2018-09-21T09:48:55.519Z,6.42
2018-09-21T09:51:25.394Z,6.22
2018-09-21T09:53:55.393Z,6.20
2018-09-21T09:56:25.458Z,5.92
2018-09-21T09:58:55.590Z,5.90
2018-09-21T10:01:25.449Z,5.30
2018-09-21T10:03:55.486Z,5.60
2018-09-21T10:06:25.565Z,5.33
2018-09-21T10:08:55.607Z,5.37
2018-09-21T10:11:25.594Z,5.45
2018-09-21T10:13:55.627Z,5.65
2018-09-21T10:16:25.662Z,5.45
2018-09-21T10:18:55.658Z,5.45
2018-09-21T10:21:25.641Z,5.73
2018-09-21T10:23:55.770Z,5.60
2018-09-21T10:26:25.732Z,5.85
2018-09-21T10:28:55.956Z,5.97
2018-09-21T10:31:25.823Z,5.50
2018-09-21T10:33:55.855Z,4.75
2018-09-21T10:36:25.807Z,5.30
2018-09-21T10:38:55.889Z,5.15
2018-09-21T10:41:25.803Z,6.37
2018-09-21T10:43:55.844Z,6.05
2018-09-21T10:46:25.834Z,5.40
2018-09-21T10:48:55.938Z,6.20
2018-09-21T10:51:25.921Z,6.33
2018-09-21T10:53:56.071Z,6.10
2018-09-21T10:56:27.031Z,6.07
2018-09-21T10:58:56.240Z,5.80
2018-09-21T11:01:26.003Z,5.97
2018-09-21T11:03:56.055Z,5.30
2018-09-21T11:06:27.134Z,5.93
2018-09-21T11:08:56.404Z,6.00
2018-09-21T11:11:27.433Z,5.43
2018-09-21T11:13:56.602Z,5.60
2018-09-21T11:16:27.342Z,5.33
2018-09-21T11:18:56.466Z,6.50
2018-09-21T11:21:27.364Z,6.27
2018-09-21T11:23:56.534Z,5.73
2018-09-21T11:26:26.444Z,5.92
2018-09-21T11:28:56.386Z,5.33
2018-09-21T11:31:27.539Z,5.80
2018-09-21T11:33:56.725Z,5.73
2018-09-21T11:36:26.346Z,6.00
2018-09-21T11:38:56.505Z,6.33
2018-09-21T11:41:26.659Z,5.50
2018-09-21T11:43:56.460Z,6.30
2018-09-21T11:46:26.568Z,5.90
2018-09-21T11:48:56.368Z,5.40
2018-09-21T11:51:26.629Z,5.97
2018-09-21T11:53:56.534Z,6.55
2018-09-21T11:56:26.558Z,6.93
2018-09-21T11:58:56.587Z,6.60
2018-09-21T12:01:26.706Z,7.37
2018-09-21T12:03:56.674Z,6.30
2018-09-21T12:06:26.655Z,6.10
2018-09-21T12:08:56.625Z,7.00
2018-09-21T12:11:26.695Z,6.72
2018-09-21T12:13:56.727Z,5.85
2018-09-21T12:16:26.680Z,5.80
2018-09-21T12:18:56.710Z,5.90
2018-09-21T12:21:26.798Z,5.60
2018-09-21T12:23:56.745Z,5.45
2018-09-21T12:26:26.838Z,5.20
2018-09-21T12:28:56.843Z,5.42
2018-09-21T12:31:26.799Z,5.30
2018-09-21T12:33:56.840Z,5.67
2018-09-21T12:36:26.980Z,5.70
2018-09-21T12:38:56.892Z,5.28
2018-09-21T12:41:26.932Z,6.27
2018-09-21T12:43:57.002Z,6.47
2018-09-21T12:46:28.477Z,6.17
2018-09-21T12:49:02.598Z,6.10
2018-09-21T12:51:32.599Z,6.10
2018-09-21T12:54:01.762Z,6.72
2018-09-21T12:56:31.022Z,5.53
2018-09-21T12:59:00.160Z,6.20
2018-09-21T13:01:29.324Z,5.67
2018-09-21T13:03:58.451Z,5.17
2018-09-21T13:06:28.387Z,6.62
2018-09-21T13:08:57.553Z,6.57
2018-09-21T13:11:28.424Z,6.62
2018-09-21T13:13:57.557Z,5.67
2018-09-21T13:16:28.337Z,6.73
2018-09-21T13:18:57.591Z,5.73
2018-09-21T13:21:28.431Z,5.78
2018-09-21T13:23:57.586Z,6.07
2018-09-21T13:26:28.429Z,5.90
2018-09-21T13:28:57.657Z,5.60
2018-09-21T13:31:28.518Z,5.50
2018-09-21T13:33:57.622Z,5.83
2018-09-21T13:36:28.752Z,5.43
2018-09-21T13:38:57.975Z,5.33
2018-09-21T13:41:28.538Z,5.43
2018-09-21T13:43:57.814Z,5.37
2018-09-21T13:46:28.381Z,5.20
2018-09-21T13:48:57.579Z,5.63
2018-09-21T13:51:28.618Z,5.07
2018-09-21T13:53:58.039Z,5.53
2018-09-21T13:56:29.002Z,4.43
2018-09-21T13:58:58.356Z,5.07
2018-09-21T14:01:28.663Z,4.58
2018-09-21T14:03:58.346Z,5.10
2018-09-21T14:06:28.674Z,4.93
2018-09-21T14:08:57.872Z,5.30
2018-09-21T14:11:28.670Z,5.00
2018-09-21T14:13:57.867Z,5.97
2018-09-21T14:16:28.789Z,5.03
2018-09-21T14:18:57.939Z,4.87
2018-09-21T14:21:27.413Z,5.23
2018-09-21T14:23:56.627Z,4.80
2018-09-21T14:26:25.858Z,5.90
2018-09-21T14:28:55.276Z,5.72
2018-09-21T14:31:24.582Z,5.10
2018-09-21T14:33:53.703Z,5.90
2018-09-21T14:36:22.860Z,5.23
2018-09-21T14:38:51.999Z,5.83
2018-09-21T14:41:21.234Z,5.60
2018-09-21T14:43:50.435Z,5.50
2018-09-21T14:46:19.656Z,5.87
2018-09-21T14:48:48.809Z,5.33
2018-09-21T14:51:18.100Z,5.67
2018-09-21T14:53:47.322Z,5.53
2018-09-21T14:56:16.442Z,5.30
2018-09-21T14:58:45.668Z,6.07
2018-09-21T15:01:14.885Z,5.87
2018-09-21T15:03:44.142Z,6.03
2018-09-21T15:06:13.271Z,5.93
2018-09-21T15:08:42.531Z,6.10
2018-09-21T15:11:11.945Z,5.50
2018-09-21T15:13:41.098Z,6.07
2018-09-21T15:16:10.289Z,5.97
2018-09-21T15:18:39.650Z,5.70
2018-09-21T15:21:08.719Z,5.78
2018-09-21T15:23:37.979Z,5.90
2018-09-21T15:26:07.144Z,6.10
2018-09-21T15:28:36.299Z,7.07
2018-09-21T15:31:05.422Z,5.70
2018-09-21T15:33:34.567Z,6.77
2018-09-21T15:36:03.755Z,6.27
2018-09-21T15:38:32.860Z,5.83
2018-09-21T15:41:02.072Z,5.80
2018-09-21T15:43:31.368Z,6.57
2018-09-21T15:46:00.540Z,7.40
2018-09-21T15:48:29.699Z,5.60
2018-09-21T15:50:58.894Z,6.20
2018-09-21T15:53:29.020Z,5.90
2018-09-21T15:55:58.969Z,5.90
2018-09-21T15:58:28.949Z,6.83
2018-09-21T16:00:58.983Z,6.40
2018-09-21T16:03:29.055Z,6.95
2018-09-21T16:05:59.092Z,7.28
2018-09-21T16:08:29.072Z,6.40
2018-09-21T16:10:59.042Z,5.90
2018-09-21T16:13:29.163Z,6.67
2018-09-21T16:15:59.254Z,6.83
2018-09-21T16:18:29.357Z,6.30
2018-09-21T16:20:59.160Z,6.80
2018-09-21T16:23:29.197Z,6.55
2018-09-21T16:25:59.318Z,6.80
2018-09-21T16:28:29.299Z,7.15
2018-09-21T16:30:59.272Z,6.50
2018-09-21T16:33:29.392Z,6.70
2018-09-21T16:35:59.160Z,6.53
2018-09-21T16:38:29.406Z,7.62
2018-09-21T16:40:59.323Z,7.75
2018-09-21T16:43:29.326Z,7.00
2018-09-21T16:45:59.486Z,7.55
2018-09-21T16:48:29.411Z,6.60
2018-09-21T16:50:59.420Z,7.15
2018-09-21T16:53:29.470Z,7.87
2018-09-21T16:55:59.524Z,7.62
2018-09-21T16:58:29.428Z,8.05
2018-09-21T17:00:59.523Z,7.47
2018-09-21T17:03:29.624Z,6.80
2018-09-21T17:05:59.556Z,7.70
2018-09-21T17:08:29.679Z,7.62
2018-09-21T17:10:59.741Z,7.12
2018-09-21T17:13:29.734Z,7.70
2018-09-21T17:16:00.158Z,7.28
2018-09-21T17:18:29.718Z,7.55
2018-09-21T17:20:59.786Z,7.47
2018-09-21T17:23:29.728Z,7.62
2018-09-21T17:25:59.908Z,7.22
2018-09-21T17:28:29.920Z,6.35
2018-09-21T17:30:59.933Z,6.77
2018-09-21T17:33:30.020Z,5.97
2018-09-21T17:35:59.968Z,6.03
2018-09-21T17:38:29.982Z,6.65
2018-09-21T17:41:00.141Z,7.28
2018-09-21T17:43:30.073Z,6.55
2018-09-21T17:46:00.089Z,6.17
2018-09-21T17:48:30.129Z,7.33
2018-09-21T17:51:00.090Z,5.95
2018-09-21T17:53:30.084Z,6.50
2018-09-21T17:56:00.235Z,5.87
2018-09-21T17:58:30.287Z,7.55
2018-09-21T18:01:00.392Z,6.75
2018-09-21T18:03:30.422Z,6.22
2018-09-21T18:06:00.387Z,6.15
2018-09-21T18:08:30.316Z,8.63
2018-09-21T18:11:00.382Z,5.55
2018-09-21T18:13:30.427Z,6.20
2018-09-21T18:16:00.499Z,5.90
2018-09-21T18:18:30.477Z,5.90
2018-09-21T18:21:00.526Z,5.70
2018-09-21T18:23:30.638Z,6.35
2018-09-21T18:26:00.723Z,6.47
2018-09-21T18:28:30.462Z,6.10
2018-09-21T18:31:00.609Z,5.92
2018-09-21T18:33:30.536Z,5.55
2018-09-21T18:36:00.527Z,5.40
2018-09-21T18:38:30.658Z,5.17
2018-09-21T18:41:00.671Z,5.77
2018-09-21T18:43:30.682Z,5.03
2018-09-21T18:46:00.647Z,5.20
2018-09-21T18:48:30.703Z,5.47
2018-09-21T18:51:00.790Z,5.75
2018-09-21T18:53:30.713Z,6.95
2018-09-21T18:56:00.846Z,5.65
2018-09-21T18:58:30.716Z,5.65
2018-09-21T19:01:00.853Z,5.45
2018-09-21T19:03:30.804Z,5.40
2018-09-21T19:06:00.996Z,5.85
2018-09-21T19:08:30.783Z,5.20
2018-09-21T19:11:00.960Z,3.80
2018-09-21T19:13:31.047Z,4.30
2018-09-21T19:16:01.075Z,3.98
2018-09-21T19:18:31.049Z,4.33
2018-09-21T19:21:01.124Z,3.20
2018-09-21T19:23:31.122Z,2.90
2018-09-21T19:26:01.232Z,3.27
2018-09-21T19:28:31.099Z,2.90
2018-09-21T19:31:01.183Z,1.92
2018-09-21T19:33:31.259Z,1.30
2018-09-21T19:36:01.198Z,1.30
2018-09-21T19:38:31.241Z,1.30
2018-09-21T19:41:01.107Z,1.40
2018-09-21T19:43:31.189Z,1.07
2018-09-21T19:46:01.253Z,1.42
2018-09-21T19:48:31.281Z,1.10
2018-09-21T19:51:01.376Z,1.55
2018-09-21T19:53:31.292Z,1.42
2018-09-21T19:56:01.413Z,1.25
2018-09-21T19:58:31.343Z,1.50
2018-09-21T20:01:01.418Z,1.40
2018-09-21T20:03:31.318Z,1.85
2018-09-21T20:06:01.568Z,2.10
2018-09-21T20:08:31.546Z,1.75
2018-09-21T20:11:01.422Z,1.57
2018-09-21T20:13:31.515Z,1.80
2018-09-21T20:16:01.454Z,2.10
2018-09-21T20:18:31.545Z,1.80
2018-09-21T20:21:01.625Z,2.05
2018-09-21T20:23:31.643Z,2.30
2018-09-21T20:26:01.639Z,1.90
2018-09-21T20:28:31.619Z,1.82
2018-09-21T20:31:06.875Z,1.50
2018-09-21T20:33:36.825Z,2.62
2018-09-21T20:36:06.029Z,2.00
2018-09-21T20:38:35.310Z,2.30
2018-09-21T20:41:04.521Z,2.80
2018-09-21T20:43:33.752Z,1.97
2018-09-21T20:46:02.918Z,2.10
2018-09-21T20:48:32.029Z,2.50
2018-09-21T20:51:01.843Z,1.92
2018-09-21T20:53:31.810Z,2.20
2018-09-21T20:56:01.914Z,2.75
2018-09-21T20:58:31.829Z,2.60
2018-09-21T21:01:01.878Z,2.10
2018-09-21T21:03:32.014Z,3.35
2018-09-21T21:06:01.944Z,2.72
2018-09-21T21:08:31.753Z,2.12
2018-09-21T21:11:02.114Z,2.10
2018-09-21T21:13:31.988Z,2.83
2018-09-21T21:16:01.994Z,2.45
2018-09-21T21:18:32.075Z,2.77
2018-09-21T21:21:02.163Z,2.35
2018-09-21T21:23:32.032Z,2.20
2018-09-21T21:26:02.051Z,2.62
2018-09-21T21:28:32.168Z,3.33
2018-09-21T21:31:02.146Z,2.70
2018-09-21T21:33:32.142Z,2.55
2018-09-21T21:36:02.581Z,2.75
2018-09-21T21:38:32.520Z,3.45
2018-09-21T21:41:02.258Z,3.65
2018-09-21T21:43:32.657Z,2.70
2018-09-21T21:46:02.411Z,3.20
2018-09-21T21:48:32.334Z,3.02
2018-09-21T21:51:02.382Z,3.17
2018-09-21T21:53:32.410Z,3.14
2018-09-21T21:56:02.380Z,4.22
2018-09-21T21:58:32.444Z,3.50
2018-09-21T22:01:07.727Z,3.92
2018-09-21T22:03:37.014Z,3.33
2018-09-21T22:06:06.128Z,4.30
2018-09-21T22:08:35.262Z,3.40
2018-09-21T22:11:16.591Z,3.60
2018-09-21T22:13:51.232Z,4.23
2018-09-21T22:16:20.382Z,4.10
2018-09-21T22:18:49.606Z,3.83
2018-09-21T22:21:18.829Z,3.90
2018-09-21T22:23:48.017Z,4.40
2018-09-21T22:26:17.260Z,4.30
2018-09-21T22:28:46.459Z,3.95
2018-09-21T22:31:15.681Z,3.90
2018-09-21T22:33:44.945Z,4.90
2018-09-21T22:36:14.139Z,3.47
2018-09-21T22:38:43.465Z,5.10
2018-09-21T22:41:12.693Z,3.60
2018-09-21T22:43:44.839Z,3.77
2018-09-21T22:46:14.166Z,4.00
2018-09-21T22:48:43.887Z,4.10
2018-09-21T22:51:13.485Z,3.53
2018-09-21T22:53:42.638Z,4.43
2018-09-21T22:56:11.820Z,3.83
2018-09-21T22:58:41.044Z,4.25
2018-09-21T23:01:10.905Z,3.93
2018-09-21T23:03:40.126Z,4.60
2018-09-21T23:06:09.412Z,3.50
2018-09-21T23:08:38.799Z,4.43
2018-09-21T23:11:07.993Z,3.33
2018-09-21T23:13:37.121Z,3.30
2018-09-21T23:16:06.191Z,3.63
2018-09-21T23:18:35.415Z,2.55
2018-09-21T23:21:04.780Z,3.10
2018-09-21T23:23:33.935Z,3.75
2018-09-21T23:26:03.233Z,2.97
2018-09-21T23:28:32.753Z,3.05
2018-09-21T23:31:02.902Z,3.02
2018-09-21T23:33:32.786Z,3.60
2018-09-21T23:36:02.896Z,2.70
2018-09-21T23:38:32.940Z,2.60
2018-09-21T23:41:02.930Z,3.10
2018-09-21T23:43:32.934Z,2.62
2018-09-21T23:46:02.961Z,3.27
2018-09-21T23:48:32.945Z,2.74
2018-09-21T23:51:02.990Z,2.75
2018-09-21T23:53:32.948Z,2.76
2018-09-21T23:56:03.117Z,2.47
2018-09-21T23:58:33.035Z,2.42
